Shutesbury, MA (01072)

2:47 PM EDT on May 05, 2015 (GMT -0400)
West Pelham Road | | Change Station
CLOSE
Current Station
Personal Weather Station
Location: Shutesbury, MA
Elevation: 1150 ft
Nearby Weather Stations

Elev 1150 ft 42.44 °N, 72.43 °W | Updated 2 minutes ago

Clear
Clear
74.2 °F
Feels Like 77 °F
N
4.0
Wind Variable Wind from SW
Gusts 4.0 mph

Today
High -- | Low -- °F
--% Chance of Precip.
Yesterday
High -- | Low -- °F
Precip. -- in
5:39 AM 7:53 PM
Full, 97% visible
Pressure 30.17 in
Visibility 10.0 miles
Clouds Few 7500 ft
Scattered Clouds 9000 ft
Heat Index 77 °F
Dew Point 48 °F
Humidity 40%
Rainfall 0.00 in
Snow Depth Not available.
UV 8 out of 12
Pollen 9.70 out of 12
Air Quality Not available.
Flu Activity Widespread
METAR KORE 051752Z AUTO 02006KT 10SM FEW075 SCT090 24/06 A3017 RMK AO2 SLP216 T02440056 10256 20183 58010

More Conditions Fewer Conditions

Pressure 30.17 in
Visibility 10.0 miles
Clouds Few 7500 ft
Scattered Clouds 9000 ft
Heat Index 77 °F
Dew Point 48 °F
Humidity 40%
Rainfall 0.00 in
Snow Depth Not available.
UV 8 out of 12
Pollen 9.70 out of 12
Air Quality Not available.
Flu Activity Widespread
METAR KORE 051752Z AUTO 02006KT 10SM FEW075 SCT090 24/06 A3017 RMK AO2 SLP216 T02440056 10256 20183 58010

More Conditions Fewer Conditions

10-Day Weather Forecast

Almanac

Astronomy

May. 05, 2015 Rise Set
Actual Time
Civil Twilight
Nautical Twilight
Astronomical Twilight
Moon
Length of Visible Light
Length of Day
Tomorrow will be .
, % of the Moon is Illuminated

Today's Extremes

State Highs State Lows

Community

WunderPhotos

Upload Photos

1,818,953 photos uploaded!

WunderBlogs® & News

Nearby

Air Quality

  Air Quality AQ Index Pollutant
Not available.

Snow Depth

Station Depth Elevation

Earthquake Activity

City Distance Mag. Time & Date
Minimum magnitude displayed is 2.5.

Coastal Water Temperatures

Place Temperature

Stations

Nearby Weather Stations

Station Location Temp. Windchill Dew Point Humidity Wind Precip. Elev Updated Type